Time;durP1;ratioP1;P1;durP2;ratioP2;P2;SDS_P1;SDS_P2;PMS_P1;PMS_P2;Temp;Humidity;BMP_temperature;BMP_pressure;BME280_temperature;BME280_humidity;BME280_pressure;Samples;Min_cycle;Max_cycle;Signal;HPM_P1;HPM_P2
2023/09/09 00:01:08;;;;;;;37.03;32.97;;;25.00;56.00;;;;;;5060151;28;20234;-28
2023/09/09 00:03:37;;;;;;;35.70;31.08;;;25.00;56.00;;;;;;5070830;28;20283;-28
2023/09/09 00:06:09;;;;;;;40.38;32.75;;;24.90;56.10;;;;;;5083271;28;20298;-28
2023/09/09 00:08:42;;;;;;;34.58;30.88;;;24.90;56.10;;;;;;5071843;28;20736;-28
2023/09/09 00:11:17;;;;;;;34.70;31.02;;;24.90;56.10;;;;;;5078771;28;20707;-28
2023/09/09 00:13:48;;;;;;;34.95;30.83;;;24.80;56.10;;;;;;5046985;28;20202;-28
2023/09/09 00:16:18;;;;;;;34.15;30.30;;;24.80;56.10;;;;;;5066799;28;20229;-28
2023/09/09 00:18:48;;;;;;;34.97;30.90;;;24.80;56.20;;;;;;5069969;28;20195;-28
2023/09/09 00:21:20;;;;;;;34.60;30.83;;;24.70;56.20;;;;;;5057103;28;20293;-28
2023/09/09 00:23:47;;;;;;;33.70;30.00;;;24.70;56.30;;;;;;5074303;28;20207;-28
2023/09/09 00:26:17;;;;;;;32.88;29.05;;;24.70;56.30;;;;;;5069160;28;20210;-28
2023/09/09 00:28:44;;;;;;;33.72;30.02;;;24.70;56.40;;;;;;5064834;28;20704;-28
2023/09/09 00:31:11;;;;;;;33.33;28.92;;;24.60;56.40;;;;;;5059278;28;20210;-28
2023/09/09 00:33:38;;;;;;;33.35;29.85;;;24.60;56.40;;;;;;5070070;28;20607;-28
2023/09/09 00:36:06;;;;;;;33.05;29.52;;;24.60;56.50;;;;;;5064826;28;20856;-28
2023/09/09 00:38:35;;;;;;;33.67;30.20;;;24.60;56.50;;;;;;5064887;28;20599;-28
2023/09/09 00:41:13;;;;;;;32.67;29.20;;;24.60;56.60;;;;;;5054180;28;20679;-28
2023/09/09 00:43:40;;;;;;;32.15;28.80;;;24.50;56.60;;;;;;5070273;28;20226;-28
2023/09/09 00:46:13;;;;;;;31.48;28.33;;;24.50;56.60;;;;;;5064323;28;20200;-28
2023/09/09 00:48:43;;;;;;;31.65;28.23;;;24.50;56.60;;;;;;5075870;28;20580;-28
2023/09/09 00:51:13;;;;;;;31.98;28.77;;;24.50;56.70;;;;;;5047020;28;20200;-28
2023/09/09 00:53:41;;;;;;;35.00;30.00;;;24.40;56.70;;;;;;5071484;28;20245;-28
2023/09/09 00:56:09;;;;;;;33.75;29.38;;;24.40;56.70;;;;;;5077138;28;20222;-28
2023/09/09 00:58:39;;;;;;;35.22;28.05;;;24.40;56.80;;;;;;5059090;28;20295;-28
2023/09/09 01:01:08;;;;;;;30.70;27.48;;;24.40;56.80;;;;;;5042691;28;20308;-28
2023/09/09 01:03:38;;;;;;;29.90;26.67;;;24.30;56.90;;;;;;5065515;28;20705;-28
2023/09/09 01:06:10;;;;;;;27.88;24.95;;;24.30;56.90;;;;;;5052522;28;20203;-28
2023/09/09 01:08:37;;;;;;;27.30;24.38;;;24.30;57.00;;;;;;5074982;28;20207;-28
2023/09/09 01:11:09;;;;;;;32.17;24.83;;;24.30;57.00;;;;;;5078891;28;20302;-28
2023/09/09 01:13:36;;;;;;;26.50;23.67;;;24.30;57.10;;;;;;5083493;28;20283;-28
2023/09/09 01:16:07;;;;;;;24.92;22.45;;;24.30;57.10;;;;;;5056762;28;20626;-28
2023/09/09 01:18:37;;;;;;;26.23;23.45;;;24.20;57.10;;;;;;5083567;28;20225;-28
2023/09/09 01:21:09;;;;;;;25.08;22.17;;;24.20;57.20;;;;;;5088501;28;20352;-28
2023/09/09 01:23:38;;;;;;;29.60;22.65;;;24.20;57.20;;;;;;5062397;28;20236;-28
2023/09/09 01:26:06;;;;;;;25.50;22.77;;;24.20;57.30;;;;;;5072208;28;20215;-28
2023/09/09 01:28:33;;;;;;;27.48;23.38;;;24.20;57.20;;;;;;5062482;28;20676;-28
2023/09/09 01:31:03;;;;;;;27.90;24.38;;;24.10;57.30;;;;;;5074786;28;20226;-25
2023/09/09 01:33:30;;;;;;;29.33;26.33;;;24.10;57.30;;;;;;5063450;28;20287;-25
2023/09/09 01:36:00;;;;;;;33.75;25.77;;;24.10;57.30;;;;;;5063952;28;20231;-25
2023/09/09 01:38:34;;;;;;;31.40;28.23;;;24.10;57.40;;;;;;5062196;28;20195;-29
2023/09/09 01:41:04;;;;;;;30.63;27.38;;;24.00;57.30;;;;;;5061822;28;20216;-25
2023/09/09 01:43:33;;;;;;;31.92;27.70;;;24.00;57.40;;;;;;5065178;28;20294;-25
2023/09/09 01:46:03;;;;;;;31.00;27.67;;;24.00;57.40;;;;;;5067247;28;20214;-25
2023/09/09 01:48:33;;;;;;;30.55;26.95;;;24.00;57.50;;;;;;5084268;28;20672;-25
2023/09/09 01:51:00;;;;;;;32.88;27.27;;;24.00;57.50;;;;;;5064773;28;21103;-25
2023/09/09 01:53:27;;;;;;;31.80;28.45;;;23.90;57.50;;;;;;5063777;28;20598;-25
2023/09/09 01:55:56;;;;;;;31.95;28.65;;;23.90;57.50;;;;;;5062116;28;20320;-25
2023/09/09 01:58:25;;;;;;;33.53;29.30;;;23.90;57.50;;;;;;5071419;28;20201;-25
2023/09/09 02:00:57;;;;;;;34.70;30.77;;;23.80;57.60;;;;;;5063437;28;20544;-25
2023/09/09 02:03:26;;;;;;;36.00;32.15;;;23.80;57.60;;;;;;5066492;28;20204;-25
2023/09/09 02:05:54;;;;;;;40.13;35.95;;;23.80;57.70;;;;;;5079449;28;20202;-25
2023/09/09 02:08:21;;;;;;;42.15;37.50;;;23.80;57.80;;;;;;5044692;28;20272;-25
2023/09/09 02:10:51;;;;;;;43.63;38.67;;;23.70;57.60;;;;;;5078775;28;20326;-25
2023/09/09 02:13:20;;;;;;;48.40;41.10;;;23.70;57.70;;;;;;5067411;28;20279;-25
2023/09/09 02:15:52;;;;;;;46.65;41.22;;;23.70;57.70;;;;;;5069030;28;20215;-25
2023/09/09 02:18:24;;;;;;;48.00;42.78;;;23.60;57.80;;;;;;5053753;28;20209;-25
2023/09/09 02:20:57;;;;;;;50.85;42.83;;;23.60;57.80;;;;;;5082305;28;20211;-26
2023/09/09 02:23:27;;;;;;;54.22;42.47;;;23.60;57.90;;;;;;5084335;28;20194;-26
2023/09/09 02:25:55;;;;;;;49.58;41.88;;;23.50;57.80;;;;;;5080527;28;20269;-25
2023/09/09 02:28:25;;;;;;;45.22;40.50;;;23.50;57.90;;;;;;5068386;28;20233;-25
2023/09/09 02:30:54;;;;;;;44.53;36.78;;;23.50;57.90;;;;;;5061737;28;20280;-25
2023/09/09 02:33:24;;;;;;;35.05;29.77;;;23.50;58.00;;;;;;5067541;28;20441;-25
2023/09/09 02:35:54;;;;;;;32.35;28.35;;;23.40;58.00;;;;;;5063120;28;20676;-25
2023/09/09 02:38:23;;;;;;;36.15;26.00;;;23.40;58.00;;;;;;5068343;28;20696;-25
2023/09/09 02:40:53;;;;;;;24.48;22.00;;;23.40;58.10;;;;;;5033626;28;20737;-25
2023/09/09 02:43:20;;;;;;;27.13;22.88;;;23.40;58.20;;;;;;5063453;28;20712;-25
2023/09/09 02:45:47;;;;;;;26.05;21.15;;;23.40;58.20;;;;;;5064707;28;20223;-25
2023/09/09 02:48:14;;;;;;;23.73;19.75;;;23.40;58.20;;;;;;5088059;28;20205;-25
2023/09/09 02:50:44;;;;;;;21.23;18.98;;;23.40;58.30;;;;;;5056343;28;20224;-25
2023/09/09 02:53:16;;;;;;;21.73;19.42;;;23.30;58.30;;;;;;5066854;28;20200;-25
2023/09/09 02:55:47;;;;;;;21.02;18.92;;;23.30;58.30;;;;;;5066886;28;20320;-25
2023/09/09 02:58:17;;;;;;;26.63;22.48;;;23.30;58.30;;;;;;5081405;28;20223;-25
2023/09/09 03:00:44;;;;;;;23.75;21.35;;;23.30;58.40;;;;;;5083955;28;20317;-25
2023/09/09 03:03:15;;;;;;;24.70;20.70;;;23.30;58.40;;;;;;5074740;28;20713;-25
2023/09/09 03:05:43;;;;;;;26.52;22.20;;;23.30;58.50;;;;;;5063490;28;20735;-25
2023/09/09 03:08:10;;;;;;;24.05;21.67;;;23.30;58.50;;;;;;5064266;28;20681;-25
2023/09/09 03:10:40;;;;;;;25.90;20.83;;;23.30;58.50;;;;;;5071634;28;20288;-25
2023/09/09 03:13:07;;;;;;;24.92;20.00;;;23.20;58.40;;;;;;5070530;28;20208;-26
2023/09/09 03:15:34;;;;;;;26.08;22.88;;;23.20;58.50;;;;;;5069856;28;20430;-25
2023/09/09 03:18:01;;;;;;;24.50;21.10;;;23.20;58.50;;;;;;5086998;28;20206;-25
2023/09/09 03:20:31;;;;;;;26.52;22.27;;;23.20;58.60;;;;;;5079461;28;20241;-25
2023/09/09 03:23:00;;;;;;;23.77;19.98;;;23.20;58.60;;;;;;5056217;28;20339;-25
2023/09/09 03:25:32;;;;;;;25.45;21.83;;;23.20;58.60;;;;;;5075747;28;20223;-28
2023/09/09 03:27:59;;;;;;;24.10;21.15;;;23.10;58.60;;;;;;5067507;28;20709;-28
2023/09/09 03:30:26;;;;;;;23.95;20.55;;;23.10;58.70;;;;;;5046653;28;20198;-28
2023/09/09 03:32:56;;;;;;;23.17;20.77;;;23.10;58.70;;;;;;5080852;28;20280;-28
2023/09/09 03:35:25;;;;;;;20.60;18.50;;;23.10;58.70;;;;;;5067110;28;20327;-28
2023/09/09 03:37:57;;;;;;;20.77;18.80;;;23.00;58.70;;;;;;5067195;28;20202;-28
2023/09/09 03:40:24;;;;;;;24.30;17.73;;;23.00;58.70;;;;;;5072339;28;20667;-28
2023/09/09 03:42:56;;;;;;;20.08;17.25;;;23.00;58.70;;;;;;5087070;28;20540;-28
2023/09/09 03:45:25;;;;;;;19.67;17.67;;;23.00;58.80;;;;;;5065626;28;20207;-28
2023/09/09 03:47:56;;;;;;;21.17;17.77;;;22.90;58.80;;;;;;5053734;28;20214;-28
2023/09/09 03:50:25;;;;;;;19.25;17.20;;;22.90;58.80;;;;;;5066472;28;20207;-28
2023/09/09 03:52:57;;;;;;;20.92;18.33;;;22.90;58.90;;;;;;5066259;28;20625;-28
2023/09/09 03:55:25;;;;;;;17.90;16.13;;;22.90;59.00;;;;;;5053873;28;20316;-27
2023/09/09 03:57:54;;;;;;;19.58;17.38;;;22.80;58.90;;;;;;5065044;28;20322;-28
2023/09/09 04:00:21;;;;;;;17.27;15.57;;;22.80;59.00;;;;;;5066670;28;20235;-28
2023/09/09 04:02:50;;;;;;;16.98;15.35;;;22.80;59.00;;;;;;5065499;28;20233;-28
2023/09/09 04:05:17;;;;;;;21.67;17.95;;;22.80;59.10;;;;;;5064341;28;20246;-28
2023/09/09 04:07:47;;;;;;;18.92;17.00;;;22.80;59.10;;;;;;5064955;28;20203;-28
2023/09/09 04:10:16;;;;;;;18.75;16.85;;;22.70;59.10;;;;;;5064308;28;20212;-28
2023/09/09 04:12:43;;;;;;;18.10;16.45;;;22.70;59.10;;;;;;5054171;28;20696;-28
2023/09/09 04:15:13;;;;;;;18.05;16.15;;;22.70;59.20;;;;;;5075416;28;20240;-28
2023/09/09 04:17:42;;;;;;;19.65;17.55;;;22.60;59.10;;;;;;5075981;28;20199;-28
2023/09/09 04:20:12;;;;;;;19.83;17.85;;;22.60;59.20;;;;;;5074067;28;20203;-28
2023/09/09 04:22:39;;;;;;;18.27;16.55;;;22.60;59.20;;;;;;5062659;28;20281;-30
2023/09/09 04:25:06;;;;;;;19.95;17.92;;;22.60;59.30;;;;;;5034125;28;20291;-28
2023/09/09 04:27:34;;;;;;;18.98;16.98;;;22.60;59.30;;;;;;5064130;28;20676;-28
2023/09/09 04:30:01;;;;;;;18.15;16.30;;;22.50;59.30;;;;;;5066639;28;20349;-28
2023/09/09 04:32:31;;;;;;;18.25;16.50;;;22.60;59.40;;;;;;5066656;28;20276;-28
2023/09/09 04:34:58;;;;;;;19.70;17.63;;;22.50;59.40;;;;;;5067630;28;20203;-28
2023/09/09 04:37:30;;;;;;;20.95;18.85;;;22.50;59.50;;;;;;5067493;28;20215;-28
2023/09/09 04:39:57;;;;;;;20.67;18.58;;;22.50;59.50;;;;;;5068022;28;20199;-28
2023/09/09 04:42:24;;;;;;;20.75;18.70;;;22.50;59.50;;;;;;5071585;28;20311;-28
2023/09/09 04:44:53;;;;;;;20.63;18.52;;;22.40;59.50;;;;;;5046626;28;20293;-25
2023/09/09 04:47:21;;;;;;;20.20;18.17;;;22.40;59.50;;;;;;5069080;28;20286;-25
2023/09/09 04:49:50;;;;;;;20.45;18.30;;;22.40;59.60;;;;;;5080425;28;20330;-25
2023/09/09 04:52:17;;;;;;;21.75;19.45;;;22.40;59.60;;;;;;5048404;28;20264;-25
2023/09/09 04:54:44;;;;;;;21.63;19.15;;;22.40;59.60;;;;;;5049312;28;20207;-25
2023/09/09 04:57:15;;;;;;;21.98;19.67;;;22.40;59.70;;;;;;5071410;28;20215;-25
2023/09/09 04:59:50;;;;;;;22.73;20.30;;;22.30;59.60;;;;;;5068262;28;20241;-25
2023/09/09 05:02:20;;;;;;;24.40;20.00;;;22.30;59.70;;;;;;5065790;28;20234;-25
2023/09/09 05:04:50;;;;;;;25.88;21.45;;;22.30;59.70;;;;;;5057243;28;20290;-25
2023/09/09 05:07:23;;;;;;;22.42;19.15;;;22.30;59.80;;;;;;5065358;28;20235;-25
2023/09/09 05:09:50;;;;;;;25.60;20.45;;;22.30;59.80;;;;;;5053390;28;20566;-25
2023/09/09 05:12:22;;;;;;;25.05;20.33;;;22.30;59.80;;;;;;5059909;28;20248;-25
2023/09/09 05:14:49;;;;;;;23.58;21.05;;;22.30;59.80;;;;;;5071108;28;20739;-25
2023/09/09 05:17:18;;;;;;;21.13;19.05;;;22.20;59.90;;;;;;5074211;28;20239;-26
2023/09/09 05:19:45;;;;;;;23.45;19.48;;;22.30;59.90;;;;;;5067635;28;20209;-25
2023/09/09 05:22:16;;;;;;;21.45;18.23;;;22.20;60.00;;;;;;5064382;28;20219;-25
2023/09/09 05:24:46;;;;;;;20.35;18.33;;;22.20;59.90;;;;;;5047376;28;20345;-25
2023/09/09 05:27:15;;;;;;;24.10;18.80;;;22.30;60.00;;;;;;5063830;28;20308;-25
2023/09/09 05:29:46;;;;;;;19.38;17.20;;;22.30;60.10;;;;;;5068214;28;20203;-25
2023/09/09 05:32:16;;;;;;;20.23;17.50;;;22.20;60.10;;;;;;5057315;28;20210;-25
2023/09/09 05:34:43;;;;;;;21.02;18.60;;;22.20;60.10;;;;;;5081320;28;20199;-25
2023/09/09 05:37:11;;;;;;;20.55;18.45;;;22.20;60.10;;;;;;5078581;28;20238;-25
2023/09/09 05:39:40;;;;;;;21.92;18.70;;;22.20;60.10;;;;;;5057535;28;20757;-25
2023/09/09 05:42:07;;;;;;;22.88;18.63;;;22.20;60.20;;;;;;5078205;28;20226;-25
2023/09/09 05:44:37;;;;;;;19.58;17.40;;;22.20;60.20;;;;;;5063462;28;20298;-25
2023/09/09 05:47:08;;;;;;;19.70;17.60;;;22.20;61.00;;;;;;5073068;28;20207;-25
2023/09/09 05:49:37;;;;;;;20.20;18.08;;;22.20;60.30;;;;;;5084184;28;20555;-25
2023/09/09 05:52:08;;;;;;;22.70;19.35;;;22.20;60.30;;;;;;5080361;28;20651;-25
2023/09/09 05:54:37;;;;;;;23.65;18.70;;;22.20;60.30;;;;;;5074189;28;20378;-25
2023/09/09 05:57:07;;;;;;;19.58;17.50;;;22.20;60.40;;;;;;5064235;28;20231;-25
2023/09/09 05:59:39;;;;;;;19.83;17.13;;;22.20;60.50;;;;;;5072319;28;20244;-25
2023/09/09 06:02:07;;;;;;;20.23;18.10;;;22.20;60.50;;;;;;5069230;28;20331;-25
2023/09/09 06:04:36;;;;;;;18.00;16.00;;;22.20;60.50;;;;;;5066724;28;20247;-25
2023/09/09 06:07:06;;;;;;;20.50;16.45;;;22.20;60.50;;;;;;5070419;28;20202;-25
2023/09/09 06:09:35;;;;;;;16.00;14.40;;;22.20;60.50;;;;;;5070660;28;20589;-25
2023/09/09 06:12:06;;;;;;;21.50;17.25;;;22.20;60.60;;;;;;5063793;28;20304;-25
2023/09/09 06:14:35;;;;;;;19.77;17.52;;;22.20;60.60;;;;;;5056806;28;20225;-25
2023/09/09 06:17:06;;;;;;;19.02;16.65;;;22.20;60.60;;;;;;5085793;28;20788;-25
2023/09/09 06:19:35;;;;;;;20.70;18.40;;;22.20;60.70;;;;;;5073490;28;20209;-25
2023/09/09 06:22:07;;;;;;;21.52;18.50;;;22.20;60.70;;;;;;5066351;28;20191;-25
2023/09/09 06:24:34;;;;;;;23.17;19.95;;;22.20;60.80;;;;;;5086432;28;20554;-30
2023/09/09 06:27:01;;;;;;;21.23;18.45;;;22.20;60.80;;;;;;5070530;28;20230;-25
2023/09/09 06:29:29;;;;;;;23.95;18.83;;;22.20;60.80;;;;;;5050810;28;20203;-25
2023/09/09 06:32:03;;;;;;;22.63;19.95;;;22.30;60.90;;;;;;5056568;28;20299;-25
2023/09/09 06:34:30;;;;;;;25.55;21.08;;;22.30;61.00;;;;;;5067232;28;20207;-25
2023/09/09 06:36:58;;;;;;;26.08;23.27;;;22.30;61.00;;;;;;5068239;28;20314;-28
2023/09/09 06:39:29;;;;;;;26.70;22.80;;;22.30;61.00;;;;;;5077600;28;20286;-25
2023/09/09 06:41:56;;;;;;;28.17;22.60;;;22.30;61.00;;;;;;5080204;28;20213;-26
2023/09/09 06:44:24;;;;;;;24.85;22.27;;;22.30;61.00;;;;;;5086431;28;20574;-25
2023/09/09 06:46:54;;;;;;;30.38;26.00;;;22.40;61.10;;;;;;5086273;28;20206;-25
2023/09/09 06:49:23;;;;;;;29.95;25.98;;;22.40;61.20;;;;;;5086201;28;20234;-25
2023/09/09 06:51:54;;;;;;;29.98;25.83;;;22.40;61.20;;;;;;5083333;28;20203;-25
2023/09/09 06:54:24;;;;;;;36.97;25.42;;;22.40;61.20;;;;;;5060686;28;20211;-25
2023/09/09 06:56:51;;;;;;;33.45;24.67;;;22.40;61.20;;;;;;5067536;28;20717;-25
2023/09/09 06:59:18;;;;;;;29.15;25.30;;;22.50;61.30;;;;;;5057914;28;20295;-25
2023/09/09 07:01:45;;;;;;;30.77;25.13;;;22.50;61.30;;;;;;5067727;28;20239;-25
2023/09/09 07:04:17;;;;;;;29.85;25.73;;;22.50;61.30;;;;;;5050542;28;20196;-25
2023/09/09 07:06:46;;;;;;;33.38;28.40;;;22.50;61.40;;;;;;5048977;28;20211;-25
2023/09/09 07:09:36;;;;;;;34.20;30.00;;;22.60;61.40;;;;;;5067447;28;20218;-25
2023/09/09 07:12:03;;;;;;;35.85;31.73;;;22.60;61.50;;;;;;5043415;28;20199;-26
2023/09/09 07:14:33;;;;;;;40.22;32.08;;;22.60;61.50;;;;;;5067529;28;20234;-25
2023/09/09 07:17:05;;;;;;;41.50;33.42;;;22.70;61.60;;;;;;5067564;28;21029;-25
2023/09/09 07:19:35;;;;;;;42.67;34.80;;;22.70;61.60;;;;;;5085255;28;20238;-25
2023/09/09 07:22:10;;;;;;;39.55;34.13;;;22.70;61.60;;;;;;5059288;28;20219;-25
2023/09/09 07:24:37;;;;;;;42.35;32.92;;;22.70;61.60;;;;;;5087266;28;20419;-25
2023/09/09 07:27:04;;;;;;;37.13;33.08;;;22.80;61.70;;;;;;5068655;28;20310;-25
2023/09/09 07:29:34;;;;;;;41.90;35.67;;;22.80;61.70;;;;;;5072497;28;20253;-25
2023/09/09 07:32:01;;;;;;;41.63;35.38;;;22.90;61.80;;;;;;5071372;28;20573;-25
2023/09/09 07:34:31;;;;;;;45.03;32.55;;;22.90;61.80;;;;;;5087003;28;20223;-26
2023/09/09 07:36:58;;;;;;;39.95;33.63;;;23.00;61.80;;;;;;5086143;28;20227;-25
2023/09/09 07:39:28;;;;;;;40.72;32.17;;;23.00;61.80;;;;;;5068156;28;20210;-25
2023/09/09 07:41:59;;;;;;;42.83;32.10;;;23.00;61.80;;;;;;5085679;28;20226;-25
2023/09/09 07:44:26;;;;;;;42.42;34.25;;;23.10;61.90;;;;;;5086338;28;20737;-25
2023/09/09 07:46:54;;;;;;;39.30;32.03;;;23.10;61.80;;;;;;5077483;28;20209;-25
2023/09/09 07:49:27;;;;;;;38.75;32.42;;;23.20;61.90;;;;;;5076852;28;20206;-24
2023/09/09 07:51:56;;;;;;;34.88;31.17;;;23.20;61.90;;;;;;5067040;28;20206;-25
2023/09/09 07:54:25;;;;;;;33.42;29.85;;;23.30;62.00;;;;;;5071637;28;20323;-25
2023/09/09 07:56:55;;;;;;;34.13;29.20;;;23.30;62.00;;;;;;5066551;28;20250;-25
2023/09/09 07:59:28;;;;;;;36.92;28.23;;;23.30;62.10;;;;;;5073786;28;20274;-25
2023/09/09 08:01:56;;;;;;;30.15;26.60;;;23.40;62.00;;;;;;5086142;28;20231;-25
2023/09/09 08:04:25;;;;;;;31.02;25.42;;;23.40;62.00;;;;;;5058163;28;20199;-25
2023/09/09 08:06:53;;;;;;;30.77;23.17;;;23.50;62.10;;;;;;5047133;28;20210;-25
2023/09/09 08:09:20;;;;;;;29.10;25.83;;;23.50;62.10;;;;;;5043364;28;20215;-25
2023/09/09 08:11:47;;;;;;;20.40;18.30;;;23.60;62.10;;;;;;5086119;28;20207;-25
2023/09/09 08:14:17;;;;;;;28.55;24.85;;;23.60;62.00;;;;;;5083983;28;20289;-25
2023/09/09 08:16:47;;;;;;;29.13;25.02;;;23.70;62.10;;;;;;5061994;28;20253;-24
2023/09/09 08:19:18;;;;;;;28.63;25.33;;;23.70;62.10;;;;;;5085134;28;20195;-25
2023/09/09 08:21:46;;;;;;;27.50;24.02;;;23.80;62.10;;;;;;5067727;28;20273;-25
2023/09/09 08:24:13;;;;;;;28.35;25.35;;;23.80;62.10;;;;;;5075814;28;20320;-25
2023/09/09 08:26:40;;;;;;;23.35;20.85;;;23.90;62.10;;;;;;5067433;28;20214;-25
2023/09/09 08:29:07;;;;;;;18.92;16.67;;;24.00;62.00;;;;;;5085517;28;20708;-25
2023/09/09 08:31:37;;;;;;;23.13;20.77;;;24.00;62.10;;;;;;5085674;28;20245;-24
2023/09/09 08:34:04;;;;;;;25.85;23.15;;;24.10;62.20;;;;;;5085826;28;20238;-25
2023/09/09 08:36:34;;;;;;;23.50;20.60;;;24.10;62.10;;;;;;5083244;28;20230;-25
2023/09/09 08:39:04;;;;;;;24.08;20.63;;;24.20;62.00;;;;;;5079857;28;20243;-25
2023/09/09 08:42:02;;;;;;;21.85;19.60;;;24.30;62.10;;;;;;5048009;28;20290;-25
2023/09/09 08:44:59;;;;;;;22.30;19.98;;;24.30;62.20;;;;;;5047864;28;20239;-25
2023/09/09 08:47:29;;;;;;;23.85;19.85;;;24.40;62.20;;;;;;5065626;28;20207;-25
2023/09/09 08:50:02;;;;;;;25.95;20.55;;;24.40;62.10;;;;;;5075021;28;20217;-26
2023/09/09 08:52:30;;;;;;;20.70;17.02;;;24.50;62.10;;;;;;5085010;28;20268;-25
2023/09/09 08:55:00;;;;;;;22.17;18.92;;;24.50;62.10;;;;;;5074352;28;20219;-26
2023/09/09 08:57:31;;;;;;;20.23;18.23;;;24.60;62.10;;;;;;5065814;28;20219;-26
2023/09/09 09:00:04;;;;;;;19.30;17.35;;;24.60;62.00;;;;;;5052161;28;20221;-25
2023/09/09 09:02:35;;;;;;;12.63;11.30;;;24.70;62.10;;;;;;5063593;28;20258;-25
2023/09/09 09:05:09;;;;;;;15.07;12.50;;;24.70;61.90;;;;;;5065331;28;20282;-25
2023/09/09 09:07:36;;;;;;;12.75;11.55;;;24.80;62.00;;;;;;5046502;28;20200;-25
2023/09/09 09:10:08;;;;;;;13.20;11.63;;;24.80;61.90;;;;;;5081189;28;20744;-26
2023/09/09 09:12:37;;;;;;;17.13;15.43;;;24.90;61.90;;;;;;5051135;28;20246;-26
2023/09/09 09:15:05;;;;;;;14.05;12.63;;;24.90;61.90;;;;;;5064979;28;20234;-26
2023/09/09 09:17:39;;;;;;;14.13;10.95;;;25.00;61.90;;;;;;5065192;28;20756;-25
2023/09/09 09:20:08;;;;;;;13.35;11.65;;;25.00;61.90;;;;;;5066827;28;20673;-25
2023/09/09 09:22:37;;;;;;;14.90;13.43;;;25.10;61.90;;;;;;5062559;28;20188;-26
2023/09/09 09:25:10;;;;;;;18.85;13.25;;;25.10;62.00;;;;;;5055607;28;20215;-26
2023/09/09 09:27:39;;;;;;;18.10;14.88;;;25.20;62.00;;;;;;5085110;28;20683;-25
2023/09/09 09:30:11;;;;;;;18.00;15.85;;;25.20;61.90;;;;;;5065209;28;20314;-25
2023/09/09 09:32:45;;;;;;;15.07;13.45;;;25.30;61.90;;;;;;5072207;28;20701;-25
2023/09/09 09:35:27;;;;;;;15.05;13.18;;;25.40;62.10;;;;;;5085168;28;20422;-25
2023/09/09 09:38:01;;;;;;;13.40;11.05;;;25.40;62.00;;;;;;5066345;28;20246;-25
2023/09/09 09:40:31;;;;;;;13.00;11.50;;;25.40;62.00;;;;;;5063675;28;20211;-25
2023/09/09 09:42:58;;;;;;;13.82;11.98;;;25.50;61.90;;;;;;5046783;28;20287;-25
2023/09/09 09:45:31;;;;;;;13.18;11.48;;;25.50;61.90;;;;;;5031055;28;20207;-26
2023/09/09 09:48:01;;;;;;;10.70;9.13;;;25.60;62.00;;;;;;5046379;28;20250;-25
2023/09/09 09:50:32;;;;;;;9.93;8.98;;;25.60;61.90;;;;;;5069714;28;20210;-25
2023/09/09 09:53:06;;;;;;;11.13;9.82;;;25.70;61.90;;;;;;5081233;28;20662;-25
2023/09/09 09:55:35;;;;;;;10.15;8.65;;;25.80;62.00;;;;;;5062466;28;20352;-25
2023/09/09 09:58:11;;;;;;;13.20;10.60;;;25.80;62.00;;;;;;5046484;28;20318;-25
2023/09/09 10:00:38;;;;;;;13.32;9.18;;;25.90;62.00;;;;;;5066117;28;20292;-25
2023/09/09 10:03:09;;;;;;;9.38;8.25;;;25.90;61.90;;;;;;5071346;28;20322;-25
2023/09/09 10:05:40;;;;;;;11.57;9.93;;;25.90;61.90;;;;;;5064825;28;20225;-25
2023/09/09 10:08:31;;;;;;;13.13;9.15;;;26.00;61.80;;;;;;5046776;28;20622;-25
2023/09/09 10:11:10;;;;;;;9.65;8.75;;;26.10;61.80;;;;;;5065091;28;20515;-25
2023/09/09 10:13:57;;;;;;;10.75;9.75;;;26.10;61.70;;;;;;5065341;28;20715;-25
2023/09/09 10:16:29;;;;;;;10.93;9.82;;;26.10;61.40;;;;;;5064447;28;20343;-25
2023/09/09 10:19:00;;;;;;;11.02;8.43;;;26.20;61.50;;;;;;5046826;28;20200;-25
2023/09/09 10:21:33;;;;;;;12.18;8.88;;;26.20;61.50;;;;;;5041012;28;20906;-25
2023/09/09 10:24:10;;;;;;;10.88;8.30;;;26.20;61.40;;;;;;5079201;28;20466;-25
2023/09/09 10:26:41;;;;;;;13.15;8.90;;;26.30;61.50;;;;;;5067432;28;20312;-25
2023/09/09 10:29:13;;;;;;;13.63;9.50;;;26.30;61.40;;;;;;5046462;28;20250;-25
2023/09/09 10:31:42;;;;;;;12.32;9.60;;;26.40;61.50;;;;;;5063101;28;20228;-25
2023/09/09 10:34:18;;;;;;;12.25;9.63;;;26.40;61.40;;;;;;5053205;28;20584;-25
2023/09/09 10:36:48;;;;;;;10.50;7.78;;;26.50;61.50;;;;;;5063994;28;20596;-25
2023/09/09 10:39:30;;;;;;;10.38;9.02;;;26.50;61.50;;;;;;5064415;28;20195;-25
2023/09/09 10:42:02;;;;;;;10.27;8.30;;;26.60;62.30;;;;;;5056326;28;20483;-25
2023/09/09 10:44:31;;;;;;;10.05;8.07;;;26.60;61.50;;;;;;5065283;28;20318;-25
2023/09/09 10:47:10;;;;;;;11.48;8.63;;;26.70;61.50;;;;;;5068291;28;20234;-25
2023/09/09 10:49:39;;;;;;;10.13;8.52;;;26.70;61.40;;;;;;5050560;28;20213;-25
2023/09/09 10:52:06;;;;;;;10.25;8.55;;;26.80;61.30;;;;;;5077032;28;20215;-25
2023/09/09 10:54:34;;;;;;;9.77;8.77;;;26.80;61.20;;;;;;5052333;28;20195;-25
2023/09/09 10:57:07;;;;;;;11.30;8.73;;;26.80;61.20;;;;;;5059601;28;20238;-25
2023/09/09 10:59:40;;;;;;;14.45;9.10;;;26.90;61.20;;;;;;5054680;28;20227;-25
2023/09/09 11:02:25;;;;;;;9.80;7.88;;;26.90;61.10;;;;;;5054318;28;20553;-25
2023/09/09 11:05:11;;;;;;;10.00;8.07;;;27.00;61.20;;;;;;5086192;28;20673;-25
2023/09/09 11:07:46;;;;;;;11.23;8.80;;;27.00;61.20;;;;;;5085432;28;20318;-26
2023/09/09 11:10:21;;;;;;;10.20;9.18;;;27.10;61.20;;;;;;5060280;28;20295;-25
2023/09/09 11:12:57;;;;;;;11.10;8.35;;;27.10;61.10;;;;;;5067366;28;20265;-25
2023/09/09 11:15:25;;;;;;;9.98;8.15;;;27.20;61.10;;;;;;5054233;28;20202;-26
2023/09/09 11:17:53;;;;;;;14.25;8.50;;;27.20;61.10;;;;;;5082363;28;20702;-25
2023/09/09 11:20:22;;;;;;;13.93;8.18;;;27.30;61.00;;;;;;5085320;28;20203;-26
2023/09/09 11:22:55;;;;;;;9.27;7.40;;;27.30;61.00;;;;;;5087536;28;20298;-26
2023/09/09 11:25:25;;;;;;;8.98;7.20;;;27.40;61.10;;;;;;5087569;28;20606;-26
2023/09/09 11:27:55;;;;;;;11.55;8.02;;;27.40;61.10;;;;;;5050605;28;20206;-26
2023/09/09 11:30:26;;;;;;;12.00;7.97;;;27.50;61.20;;;;;;5065494;28;20226;-26
2023/09/09 11:32:53;;;;;;;10.13;6.90;;;27.50;61.10;;;;;;5065770;28;20297;-25
2023/09/09 11:35:25;;;;;;;11.52;7.40;;;27.60;61.10;;;;;;5066921;28;20701;-26
2023/09/09 11:38:01;;;;;;;9.50;7.15;;;27.60;61.00;;;;;;5072033;28;20222;-25
2023/09/09 11:40:29;;;;;;;10.98;7.30;;;27.70;61.00;;;;;;5048746;28;20215;-25
2023/09/09 11:42:59;;;;;;;9.40;7.30;;;27.70;61.00;;;;;;5065554;28;20220;-26
2023/09/09 11:45:35;;;;;;;9.80;7.53;;;27.80;61.00;;;;;;5048657;28;20223;-26
2023/09/09 11:48:09;;;;;;;10.63;7.28;;;27.80;61.00;;;;;;5056451;28;20298;-26
2023/09/09 11:50:43;;;;;;;9.70;7.20;;;27.90;61.10;;;;;;5084484;28;20700;-26
2023/09/09 11:53:13;;;;;;;12.52;7.43;;;27.90;61.00;;;;;;5066346;28;20206;-26
2023/09/09 11:55:43;;;;;;;11.07;7.18;;;28.00;61.00;;;;;;5069101;28;20218;-25
2023/09/09 11:58:10;;;;;;;11.15;7.35;;;28.00;61.00;;;;;;5081634;28;20305;-25
2023/09/09 12:00:40;;;;;;;12.25;7.18;;;28.10;60.90;;;;;;5086893;28;20213;-25
2023/09/09 12:03:07;;;;;;;10.30;7.40;;;28.10;60.60;;;;;;5085469;28;20226;-26
2023/09/09 12:05:34;;;;;;;9.32;7.72;;;28.20;60.70;;;;;;5086386;28;20203;-26
2023/09/09 12:08:03;;;;;;;13.07;7.10;;;28.30;60.80;;;;;;5080882;28;20252;-26
2023/09/09 12:10:38;;;;;;;15.85;7.85;;;28.30;60.80;;;;;;5048632;28;20677;-25
2023/09/09 12:13:08;;;;;;;30.08;8.38;;;28.30;60.70;;;;;;5058276;28;20202;-25
2023/09/09 12:15:36;;;;;;;13.50;7.28;;;28.40;60.70;;;;;;5084601;28;20283;-26
2023/09/09 12:18:12;;;;;;;12.77;8.07;;;28.40;60.70;;;;;;5082205;28;20512;-26
2023/09/09 12:20:59;;;;;;;11.35;6.88;;;28.50;60.70;;;;;;5047946;28;20799;-25
2023/09/09 12:23:31;;;;;;;13.57;6.75;;;28.50;60.70;;;;;;5065683;28;20206;-25
2023/09/09 12:26:15;;;;;;;10.75;7.07;;;28.60;60.80;;;;;;5031013;28;20243;-25
2023/09/09 12:28:44;;;;;;;10.95;7.80;;;28.60;60.70;;;;;;5069648;28;20204;-25
2023/09/09 12:31:13;;;;;;;8.60;7.50;;;28.70;60.80;;;;;;5045604;28;20203;-26
2023/09/09 12:33:49;;;;;;;10.30;7.28;;;28.70;60.70;;;;;;5066231;28;20199;-26
2023/09/09 12:36:20;;;;;;;12.07;7.95;;;28.80;60.70;;;;;;5065395;28;20646;-26
2023/09/09 12:38:50;;;;;;;10.45;7.00;;;28.80;60.60;;;;;;5047844;28;20238;-25
2023/09/09 12:41:21;;;;;;;12.45;7.57;;;28.90;60.70;;;;;;5056252;28;20497;-25
2023/09/09 12:43:51;;;;;;;11.40;6.97;;;28.90;60.60;;;;;;5065722;28;20215;-25
2023/09/09 12:46:25;;;;;;;14.35;7.80;;;28.90;60.50;;;;;;5065325;28;20226;-26